createdAt,value
2018-12-03T00:00:14.141Z,36.35
2018-12-03T00:02:40.144Z,36.54
2018-12-03T00:05:06.178Z,36.39
2018-12-03T00:07:32.149Z,36.31
2018-12-03T00:09:58.113Z,36.37
2018-12-03T00:12:24.123Z,36.48
2018-12-03T00:14:50.106Z,36.33
2018-12-03T00:17:16.087Z,36.42
2018-12-03T00:19:42.052Z,36.43
2018-12-03T00:22:08.057Z,36.34
2018-12-03T00:24:34.032Z,36.40
2018-12-03T00:27:00.029Z,36.45
2018-12-03T00:29:26.007Z,36.50
2018-12-03T00:31:51.996Z,36.25
2018-12-03T00:34:17.969Z,36.21
2018-12-03T00:36:43.976Z,36.30
2018-12-03T00:39:09.957Z,36.41
2018-12-03T00:41:35.945Z,36.40
2018-12-03T00:44:01.926Z,36.27
2018-12-03T00:46:27.921Z,36.33
2018-12-03T00:48:53.897Z,36.17
2018-12-03T00:51:19.896Z,36.33
2018-12-03T00:53:45.882Z,36.19
2018-12-03T00:56:11.867Z,36.22
2018-12-03T00:58:37.844Z,36.33
2018-12-03T01:01:03.851Z,36.36
2018-12-03T01:03:29.821Z,36.21
2018-12-03T01:05:55.813Z,36.24
2018-12-03T01:08:21.802Z,36.40
2018-12-03T01:10:47.785Z,36.30
2018-12-03T01:13:13.767Z,36.25
2018-12-03T01:15:39.771Z,36.15
2018-12-03T01:18:05.756Z,36.25
2018-12-03T01:20:31.732Z,36.26
2018-12-03T01:22:57.714Z,36.12
2018-12-03T01:25:23.698Z,36.02
2018-12-03T01:27:49.681Z,36.25
2018-12-03T01:30:15.682Z,36.29
2018-12-03T01:32:41.667Z,36.19
2018-12-03T01:35:07.651Z,36.21
2018-12-03T01:37:33.642Z,36.24
2018-12-03T01:39:59.644Z,36.32
2018-12-03T01:42:25.618Z,36.10
2018-12-03T01:44:51.614Z,36.05
2018-12-03T01:47:17.601Z,36.03
2018-12-03T01:49:43.587Z,36.17
2018-12-03T01:52:09.561Z,36.16
2018-12-03T01:54:35.565Z,36.08
2018-12-03T01:57:01.544Z,36.11
2018-12-03T01:59:27.534Z,36.14
2018-12-03T02:01:53.528Z,36.19
2018-12-03T02:04:19.508Z,36.06
2018-12-03T02:06:45.497Z,35.97
2018-12-03T02:09:11.500Z,36.00
2018-12-03T02:11:37.481Z,36.04
2018-12-03T02:14:03.467Z,36.15
2018-12-03T02:16:29.440Z,36.11
2018-12-03T02:18:55.433Z,35.98
2018-12-03T02:21:21.405Z,35.89
2018-12-03T02:23:47.417Z,36.02
2018-12-03T02:26:13.402Z,36.05
2018-12-03T02:28:39.404Z,35.95
2018-12-03T02:31:05.397Z,36.03
2018-12-03T02:33:31.395Z,35.94
2018-12-03T02:35:57.382Z,36.05
2018-12-03T02:38:23.370Z,35.97
2018-12-03T02:40:49.364Z,36.10
2018-12-03T02:43:15.342Z,35.97
2018-12-03T02:45:41.373Z,36.11
2018-12-03T02:48:07.373Z,35.98
2018-12-03T02:50:33.365Z,35.92
2018-12-03T02:52:59.350Z,35.96
2018-12-03T02:55:25.344Z,35.94
2018-12-03T02:57:51.324Z,35.93
2018-12-03T03:00:17.317Z,35.93
2018-12-03T03:02:43.298Z,35.96
2018-12-03T03:05:09.281Z,35.89
2018-12-03T03:07:35.275Z,36.15
2018-12-03T03:10:01.266Z,35.98
2018-12-03T03:12:27.247Z,35.99
2018-12-03T03:14:53.212Z,35.88
2018-12-03T03:17:19.258Z,36.01
2018-12-03T03:19:45.225Z,35.80
2018-12-03T03:22:11.231Z,35.98
2018-12-03T03:24:37.225Z,35.87
2018-12-03T03:27:03.214Z,35.93
2018-12-03T03:29:29.187Z,35.90
2018-12-03T03:31:55.203Z,35.89
2018-12-03T03:34:21.228Z,35.89
2018-12-03T03:36:47.217Z,35.98
2018-12-03T03:39:13.201Z,35.82
2018-12-03T03:41:39.197Z,35.84
2018-12-03T03:44:05.179Z,36.01
2018-12-03T03:46:31.189Z,35.98
2018-12-03T03:48:57.220Z,36.05
2018-12-03T03:51:23.193Z,35.83
2018-12-03T03:53:49.174Z,35.79
2018-12-03T03:56:15.195Z,35.95
2018-12-03T03:58:41.170Z,35.79
2018-12-03T04:01:07.179Z,35.86
2018-12-03T04:03:33.170Z,35.83
2018-12-03T04:05:59.154Z,35.89
2018-12-03T04:08:25.125Z,35.94
2018-12-03T04:10:51.123Z,35.82
2018-12-03T04:13:17.102Z,35.80
2018-12-03T04:15:43.083Z,35.97
2018-12-03T04:18:09.078Z,36.00
2018-12-03T04:20:35.069Z,35.76
2018-12-03T04:23:01.038Z,35.95
2018-12-03T04:25:27.040Z,35.89
2018-12-03T04:27:53.103Z,35.90
2018-12-03T04:30:19.051Z,35.92
2018-12-03T04:32:45.004Z,35.87
2018-12-03T04:35:11.000Z,35.81
2018-12-03T04:37:36.980Z,35.86
2018-12-03T04:40:02.980Z,35.86
2018-12-03T04:42:28.967Z,35.71
2018-12-03T04:44:54.951Z,35.82
2018-12-03T04:47:20.946Z,35.80
2018-12-03T04:49:46.941Z,35.81
2018-12-03T04:52:12.928Z,35.74
2018-12-03T04:54:38.952Z,35.93
2018-12-03T04:57:04.956Z,35.77
2018-12-03T04:59:30.943Z,35.74
2018-12-03T05:01:56.919Z,35.82
2018-12-03T05:04:22.909Z,35.80
2018-12-03T05:06:48.900Z,35.88
2018-12-03T05:09:14.878Z,35.88
2018-12-03T05:11:40.856Z,35.93
2018-12-03T05:14:06.848Z,35.75
2018-12-03T05:16:32.827Z,35.71
2018-12-03T05:18:58.837Z,35.80
2018-12-03T05:21:24.825Z,35.80
2018-12-03T05:23:50.841Z,35.84
2018-12-03T05:26:16.821Z,35.68
2018-12-03T05:28:42.821Z,35.80
2018-12-03T05:31:08.802Z,35.84
2018-12-03T05:33:34.782Z,35.75
2018-12-03T05:36:00.771Z,35.96
2018-12-03T05:38:26.758Z,35.95
2018-12-03T05:40:52.750Z,35.75
2018-12-03T05:43:18.747Z,35.76
2018-12-03T05:45:44.736Z,35.70
2018-12-03T05:48:10.708Z,35.88
2018-12-03T05:50:36.686Z,35.68
2018-12-03T05:53:02.703Z,36.04
2018-12-03T05:55:28.690Z,35.95
2018-12-03T05:57:54.697Z,35.73
2018-12-03T06:00:20.686Z,35.90
2018-12-03T06:02:46.667Z,36.01
2018-12-03T06:05:12.751Z,36.02
2018-12-03T06:07:38.789Z,36.05
2018-12-03T06:10:04.733Z,36.13
2018-12-03T06:12:30.724Z,36.10
2018-12-03T06:14:56.725Z,36.17
2018-12-03T06:17:22.718Z,36.30
2018-12-03T06:19:48.736Z,36.48
2018-12-03T06:22:14.745Z,36.53
2018-12-03T06:24:40.742Z,36.58
2018-12-03T06:27:06.790Z,36.56
2018-12-03T06:29:32.757Z,36.69
2018-12-03T06:31:58.770Z,36.71
2018-12-03T06:34:24.774Z,36.75
2018-12-03T06:36:50.782Z,36.57
2018-12-03T06:39:16.784Z,36.55
2018-12-03T06:41:42.826Z,36.51
2018-12-03T06:44:08.830Z,36.43
2018-12-03T06:46:34.832Z,36.28
2018-12-03T06:49:00.822Z,36.24
2018-12-03T06:51:26.813Z,36.12
2018-12-03T06:53:52.931Z,36.11
2018-12-03T06:56:18.918Z,36.05
2018-12-03T06:58:44.967Z,35.90
2018-12-03T07:01:10.951Z,35.71
2018-12-03T07:03:36.946Z,35.62
2018-12-03T07:06:02.936Z,36.04
2018-12-03T07:08:28.900Z,36.05
2018-12-03T07:10:54.901Z,36.21
2018-12-03T07:13:20.895Z,36.17
2018-12-03T07:15:46.901Z,36.06
2018-12-03T07:18:12.937Z,36.01
2018-12-03T07:20:38.924Z,35.75
2018-12-03T07:23:04.909Z,35.89
2018-12-03T07:25:30.917Z,35.86
2018-12-03T07:27:56.923Z,35.71
2018-12-03T07:30:22.911Z,35.68
2018-12-03T07:32:48.895Z,35.65
2018-12-03T07:35:14.881Z,35.70
2018-12-03T07:37:40.861Z,35.86
2018-12-03T07:40:06.873Z,35.48
2018-12-03T07:42:32.883Z,35.80
2018-12-03T07:44:58.883Z,35.52
2018-12-03T07:47:24.871Z,35.39
2018-12-03T07:49:50.869Z,35.38
2018-12-03T07:52:16.853Z,35.66
2018-12-03T07:54:42.854Z,35.59
2018-12-03T07:57:08.829Z,35.61
2018-12-03T07:59:34.865Z,35.63
2018-12-03T08:02:00.900Z,35.57
2018-12-03T08:04:26.864Z,35.82
2018-12-03T08:06:52.858Z,35.93
2018-12-03T08:09:18.878Z,35.99
2018-12-03T08:11:44.866Z,36.14
2018-12-03T08:14:10.857Z,36.15
2018-12-03T08:16:36.901Z,36.27
2018-12-03T08:19:02.873Z,36.19
2018-12-03T08:21:28.961Z,36.29
2018-12-03T08:23:54.943Z,36.41
2018-12-03T08:26:20.940Z,36.19
2018-12-03T08:28:46.936Z,36.19
2018-12-03T08:31:12.937Z,36.13
2018-12-03T08:33:38.951Z,36.11
2018-12-03T08:36:04.936Z,35.92
2018-12-03T08:38:30.924Z,35.95
2018-12-03T08:40:56.931Z,35.86
2018-12-03T08:43:22.892Z,35.61
2018-12-03T08:45:48.889Z,35.86
2018-12-03T08:48:14.874Z,35.77
2018-12-03T08:50:40.863Z,35.79
2018-12-03T08:53:06.872Z,35.93
2018-12-03T08:55:32.875Z,35.76
2018-12-03T08:57:58.839Z,35.80
2018-12-03T09:00:24.829Z,35.51
2018-12-03T09:02:50.817Z,35.70
2018-12-03T09:05:16.813Z,35.56
2018-12-03T09:07:42.797Z,35.62
2018-12-03T09:10:08.829Z,35.64
2018-12-03T09:12:34.808Z,35.61
2018-12-03T09:15:00.812Z,35.38
2018-12-03T09:17:26.826Z,35.64
2018-12-03T09:19:52.823Z,35.81
2018-12-03T09:22:18.800Z,36.09
2018-12-03T09:24:44.781Z,36.14
2018-12-03T09:27:10.780Z,36.21
2018-12-03T09:29:36.757Z,36.29
2018-12-03T09:32:02.754Z,36.28
2018-12-03T09:34:28.737Z,36.27
2018-12-03T09:36:54.708Z,36.34
2018-12-03T09:39:20.769Z,36.33
2018-12-03T09:41:46.769Z,36.44
2018-12-03T09:44:12.767Z,36.35
2018-12-03T09:46:38.753Z,36.20
2018-12-03T09:49:04.763Z,36.40
2018-12-03T09:51:30.728Z,36.15
2018-12-03T09:53:56.726Z,36.16
2018-12-03T09:56:22.722Z,36.34
2018-12-03T09:58:48.721Z,36.26
2018-12-03T10:01:14.690Z,36.20
2018-12-03T10:03:40.680Z,36.28
2018-12-03T10:06:06.700Z,36.23
2018-12-03T10:08:32.715Z,36.11
2018-12-03T10:10:58.726Z,36.10
2018-12-03T10:13:24.726Z,36.17
2018-12-03T10:15:50.695Z,35.94
2018-12-03T10:18:16.704Z,36.04
2018-12-03T10:20:42.685Z,35.94
2018-12-03T10:23:08.674Z,35.99
2018-12-03T10:25:34.649Z,36.01
2018-12-03T10:28:00.650Z,35.94
2018-12-03T10:30:26.682Z,35.88
2018-12-03T10:32:52.788Z,35.93
2018-12-03T10:35:18.773Z,35.83
2018-12-03T10:37:44.775Z,35.89
2018-12-03T10:40:10.741Z,35.77
2018-12-03T10:42:36.759Z,35.73
2018-12-03T10:45:02.739Z,35.74
2018-12-03T10:47:28.718Z,35.77
2018-12-03T10:49:54.745Z,35.62
2018-12-03T10:52:20.738Z,35.66
2018-12-03T10:54:46.713Z,35.64
2018-12-03T10:57:12.704Z,35.60
2018-12-03T10:59:38.689Z,35.62
2018-12-03T11:02:04.697Z,35.55
2018-12-03T11:04:30.664Z,35.43
2018-12-03T11:06:56.669Z,35.54
2018-12-03T11:09:22.637Z,35.46
2018-12-03T11:11:48.631Z,35.48
2018-12-03T11:14:14.624Z,35.31
2018-12-03T11:16:40.618Z,35.30
2018-12-03T11:19:06.595Z,35.26
2018-12-03T11:21:32.578Z,35.18
2018-12-03T11:23:58.572Z,35.35
2018-12-03T11:26:24.551Z,35.05
2018-12-03T11:28:50.541Z,35.15
2018-12-03T11:31:16.543Z,35.22
2018-12-03T11:33:42.519Z,35.19
2018-12-03T11:36:08.501Z,35.21
2018-12-03T11:38:34.494Z,34.98
2018-12-03T11:41:00.497Z,35.12
2018-12-03T11:43:26.470Z,35.04
2018-12-03T11:45:52.470Z,35.19
2018-12-03T11:48:18.465Z,35.08
2018-12-03T11:50:44.557Z,35.28
2018-12-03T11:53:10.580Z,35.03
2018-12-03T11:55:36.582Z,35.03
2018-12-03T11:58:02.549Z,35.16
2018-12-03T12:00:28.576Z,35.01
2018-12-03T12:02:54.607Z,35.02
2018-12-03T12:05:20.582Z,35.19
2018-12-03T12:07:46.600Z,35.18
2018-12-03T12:10:12.600Z,35.05
2018-12-03T12:12:38.575Z,34.89
2018-12-03T12:15:04.570Z,35.15
2018-12-03T12:17:30.542Z,34.97
2018-12-03T12:19:56.532Z,35.12
2018-12-03T12:22:22.503Z,35.10
2018-12-03T12:24:48.530Z,35.16
2018-12-03T12:27:14.619Z,34.85
2018-12-03T12:29:40.608Z,34.92
2018-12-03T12:32:06.605Z,34.99
2018-12-03T12:34:32.597Z,35.02
2018-12-03T12:36:58.570Z,35.05
2018-12-03T12:39:24.561Z,34.95
2018-12-03T12:41:50.749Z,34.95
2018-12-03T12:44:16.756Z,34.86
2018-12-03T12:46:42.743Z,34.97
2018-12-03T12:49:08.740Z,34.92
2018-12-03T12:51:34.725Z,35.03
2018-12-03T12:54:00.715Z,35.01
2018-12-03T12:56:26.698Z,34.97
2018-12-03T12:58:52.701Z,35.02
2018-12-03T13:01:18.685Z,35.00
2018-12-03T13:03:44.756Z,34.99
2018-12-03T13:06:10.745Z,34.99
2018-12-03T13:08:36.741Z,34.88
2018-12-03T13:11:02.733Z,34.92
2018-12-03T13:13:28.719Z,34.84
2018-12-03T13:15:54.714Z,35.20
2018-12-03T13:18:20.753Z,35.04
2018-12-03T13:20:46.718Z,35.07
2018-12-03T13:23:12.760Z,35.07
2018-12-03T13:25:38.736Z,35.15
2018-12-03T13:28:04.893Z,35.16
2018-12-03T13:30:33.896Z,35.13
2018-12-03T13:33:00.157Z,35.18
2018-12-03T13:35:26.127Z,34.91
2018-12-03T13:37:52.116Z,34.90
2018-12-03T13:40:18.110Z,34.92
2018-12-03T13:42:44.179Z,35.05
2018-12-03T13:45:10.181Z,35.11
2018-12-03T13:47:36.182Z,35.04
2018-12-03T13:50:02.151Z,34.90
2018-12-03T13:52:28.130Z,35.08
2018-12-03T13:54:54.158Z,35.18
2018-12-03T13:57:20.162Z,34.94
2018-12-03T13:59:46.136Z,34.98
2018-12-03T14:02:12.145Z,35.09
2018-12-03T14:04:38.131Z,35.00
2018-12-03T14:07:04.142Z,35.02
2018-12-03T14:09:30.137Z,35.17
2018-12-03T14:11:56.176Z,34.99
2018-12-03T14:14:22.151Z,35.08
2018-12-03T14:17:05.656Z,34.97
2018-12-03T14:19:31.653Z,34.87
2018-12-03T14:21:57.675Z,35.08
2018-12-03T14:24:23.679Z,34.89
2018-12-03T14:26:49.680Z,34.95
2018-12-03T14:29:15.657Z,34.97
2018-12-03T14:31:41.637Z,34.92
2018-12-03T14:34:07.631Z,34.92
2018-12-03T14:36:33.686Z,34.99
2018-12-03T14:38:59.660Z,35.03
2018-12-03T14:41:25.649Z,35.07
2018-12-03T14:43:51.626Z,35.15
2018-12-03T14:46:17.617Z,35.03
2018-12-03T14:48:43.656Z,35.00
2018-12-03T14:51:09.649Z,35.08
2018-12-03T14:53:35.621Z,34.98
2018-12-03T14:56:01.643Z,34.87
2018-12-03T14:58:27.641Z,34.93
2018-12-03T15:00:53.639Z,35.00
2018-12-03T15:03:19.627Z,34.91
2018-12-03T15:05:45.655Z,35.18
2018-12-03T15:08:11.631Z,35.05
2018-12-03T15:10:37.612Z,35.13
2018-12-03T15:13:03.605Z,35.16
2018-12-03T15:15:29.603Z,35.16
2018-12-03T15:17:55.576Z,35.27
2018-12-03T15:20:21.565Z,35.22
2018-12-03T15:22:47.548Z,35.45
2018-12-03T15:25:13.531Z,35.37
2018-12-03T15:27:39.521Z,35.34
2018-12-03T15:30:05.553Z,35.55
2018-12-03T15:32:31.530Z,35.60
2018-12-03T15:34:57.517Z,35.52
2018-12-03T15:37:23.515Z,35.60
2018-12-03T15:39:49.500Z,35.61
2018-12-03T15:42:15.583Z,35.40
2018-12-03T15:44:41.634Z,35.60
2018-12-03T15:47:07.594Z,35.49
2018-12-03T15:49:33.605Z,35.45
2018-12-03T15:51:59.592Z,35.39
2018-12-03T15:54:25.594Z,35.43
2018-12-03T15:56:51.576Z,35.23
2018-12-03T15:59:17.620Z,35.53
2018-12-03T16:01:43.598Z,35.34
2018-12-03T16:04:09.704Z,35.22
2018-12-03T16:06:35.877Z,35.35
2018-12-03T16:09:01.876Z,35.39
2018-12-03T16:11:27.845Z,35.32
2018-12-03T16:13:53.866Z,35.48
2018-12-03T16:16:19.852Z,35.50
2018-12-03T16:18:45.841Z,35.44
2018-12-03T16:21:11.851Z,35.31
2018-12-03T16:23:38.111Z,35.35
2018-12-03T16:26:04.083Z,35.47
2018-12-03T16:28:30.068Z,35.50
2018-12-03T16:30:56.070Z,35.60
2018-12-03T16:33:22.070Z,35.79
2018-12-03T16:35:48.042Z,35.70
2018-12-03T16:38:14.035Z,35.75
2018-12-03T16:40:40.010Z,35.69
2018-12-03T16:43:06.018Z,35.50
2018-12-03T16:45:31.998Z,35.58
2018-12-03T16:47:57.995Z,35.63
2018-12-03T16:50:23.957Z,35.53
2018-12-03T16:52:49.947Z,35.55
2018-12-03T16:55:15.931Z,35.43
2018-12-03T16:57:41.925Z,35.59
2018-12-03T17:00:07.946Z,35.49
2018-12-03T17:02:33.976Z,35.45
2018-12-03T17:04:59.943Z,35.58
2018-12-03T17:07:25.953Z,35.88
2018-12-03T17:09:51.963Z,36.29
2018-12-03T17:12:18.209Z,36.71
2018-12-03T17:14:44.188Z,36.93
2018-12-03T17:17:10.389Z,37.07
2018-12-03T17:19:36.381Z,37.20
2018-12-03T17:22:04.471Z,37.38
2018-12-03T17:24:30.429Z,37.31
2018-12-03T17:26:56.422Z,37.40
2018-12-03T17:29:22.400Z,37.33
2018-12-03T17:31:48.394Z,37.52
2018-12-03T17:34:14.444Z,37.53
2018-12-03T17:36:40.421Z,37.61
2018-12-03T17:39:06.415Z,37.39
2018-12-03T17:41:32.427Z,37.87
2018-12-03T17:43:58.563Z,37.85
2018-12-03T17:46:24.567Z,37.78
2018-12-03T17:48:50.548Z,37.89
2018-12-03T17:51:16.560Z,37.94
2018-12-03T17:53:42.528Z,38.07
2018-12-03T17:56:08.585Z,37.97
2018-12-03T17:58:34.567Z,38.04
2018-12-03T18:01:00.560Z,37.86
2018-12-03T18:03:26.593Z,37.92
2018-12-03T18:05:52.594Z,38.10
2018-12-03T18:08:18.560Z,38.17
2018-12-03T18:10:44.551Z,38.28
2018-12-03T18:13:10.540Z,38.28
2018-12-03T18:15:36.532Z,38.45
2018-12-03T18:18:02.529Z,38.25
2018-12-03T18:20:28.630Z,38.26
2018-12-03T18:22:54.612Z,38.52
2018-12-03T18:25:20.597Z,38.45
2018-12-03T18:27:46.605Z,38.52
2018-12-03T18:30:12.578Z,38.57
2018-12-03T18:32:38.575Z,38.33
2018-12-03T18:35:04.547Z,38.34
2018-12-03T18:37:30.624Z,38.32
2018-12-03T18:39:56.614Z,38.40
2018-12-03T18:42:22.615Z,38.45
2018-12-03T18:44:48.597Z,38.45
2018-12-03T18:47:14.651Z,38.45
2018-12-03T18:49:40.659Z,38.25
2018-12-03T18:52:06.649Z,38.36
2018-12-03T18:54:32.668Z,38.09
2018-12-03T18:56:58.657Z,37.93
2018-12-03T18:59:24.635Z,37.77
2018-12-03T19:01:50.633Z,37.72
2018-12-03T19:04:16.620Z,37.33
2018-12-03T19:06:42.609Z,37.20
2018-12-03T19:09:08.592Z,37.31
2018-12-03T19:11:34.597Z,37.43
2018-12-03T19:14:00.570Z,37.51
2018-12-03T19:16:26.578Z,37.56
2018-12-03T19:18:52.552Z,37.59
2018-12-03T19:21:18.543Z,37.61
2018-12-03T19:23:44.513Z,37.67
2018-12-03T19:26:10.521Z,37.74
2018-12-03T19:28:36.542Z,38.34
2018-12-03T19:31:02.670Z,38.33
2018-12-03T19:33:28.658Z,38.94
2018-12-03T19:35:54.677Z,38.85
2018-12-03T19:38:20.653Z,39.22
2018-12-03T19:40:46.662Z,38.72
2018-12-03T19:43:12.657Z,39.16
2018-12-03T19:45:38.666Z,39.03
2018-12-03T19:48:04.654Z,39.58
2018-12-03T19:50:30.659Z,39.41
2018-12-03T19:52:56.692Z,39.16
2018-12-03T19:55:22.630Z,39.22
2018-12-03T19:57:48.660Z,39.04
2018-12-03T20:00:14.632Z,39.00
2018-12-03T20:02:40.619Z,38.94
2018-12-03T20:05:06.604Z,39.13
2018-12-03T20:07:32.604Z,38.93
2018-12-03T20:09:58.679Z,39.05
2018-12-03T20:12:24.661Z,38.89
2018-12-03T20:14:50.645Z,38.99
2018-12-03T20:17:16.621Z,38.82
2018-12-03T20:19:44.606Z,38.79
2018-12-03T20:22:10.585Z,38.61
2018-12-03T20:24:36.610Z,38.43
2018-12-03T20:27:02.577Z,38.33
2018-12-03T20:29:28.581Z,38.23
2018-12-03T20:31:54.559Z,38.21
2018-12-03T20:34:20.559Z,38.10
2018-12-03T20:36:46.557Z,37.99
2018-12-03T20:39:12.567Z,37.97
2018-12-03T20:41:38.538Z,37.82
2018-12-03T20:44:04.549Z,37.77
2018-12-03T20:46:30.536Z,37.68
2018-12-03T20:48:57.797Z,37.72
2018-12-03T20:51:23.771Z,37.65
2018-12-03T20:53:49.756Z,37.57
2018-12-03T20:56:15.772Z,37.62
2018-12-03T20:58:41.791Z,37.56
2018-12-03T21:01:07.799Z,37.60
2018-12-03T21:03:33.788Z,37.63
2018-12-03T21:05:59.755Z,37.59
2018-12-03T21:08:25.756Z,37.57
2018-12-03T21:10:51.799Z,37.66
2018-12-03T21:13:17.804Z,37.76
2018-12-03T21:15:43.788Z,37.74
2018-12-03T21:18:09.776Z,37.77
2018-12-03T21:20:35.767Z,37.77
2018-12-03T21:23:01.780Z,37.75
2018-12-03T21:25:27.771Z,37.71
2018-12-03T21:27:53.784Z,37.71
2018-12-03T21:30:19.765Z,37.77
2018-12-03T21:32:45.742Z,37.74
2018-12-03T21:35:11.750Z,37.75
2018-12-03T21:37:37.744Z,37.71
2018-12-03T21:40:03.728Z,37.59
2018-12-03T21:42:29.714Z,37.59
2018-12-03T21:44:55.691Z,37.55
2018-12-03T21:47:21.681Z,37.52
2018-12-03T21:49:47.652Z,37.48
2018-12-03T21:52:13.684Z,37.48
2018-12-03T21:54:39.669Z,37.30
2018-12-03T21:57:10.659Z,37.25
2018-12-03T21:59:31.623Z,37.25
2018-12-03T22:01:57.616Z,37.17
2018-12-03T22:04:23.602Z,37.11
2018-12-03T22:06:49.591Z,37.19
2018-12-03T22:09:15.582Z,37.14
2018-12-03T22:11:41.566Z,37.08
2018-12-03T22:14:07.541Z,37.01
2018-12-03T22:16:33.554Z,37.10
2018-12-03T22:18:59.528Z,37.06
2018-12-03T22:21:25.552Z,37.09
2018-12-03T22:23:51.528Z,37.14
2018-12-03T22:26:17.519Z,37.19
2018-12-03T22:28:43.534Z,37.13
2018-12-03T22:31:09.536Z,37.07
2018-12-03T22:33:35.525Z,37.09
2018-12-03T22:36:01.512Z,37.09
2018-12-03T22:38:27.486Z,37.12
2018-12-03T22:40:53.495Z,36.99
2018-12-03T22:43:19.479Z,37.04
2018-12-03T22:45:45.452Z,37.06
2018-12-03T22:48:11.443Z,37.08
2018-12-03T22:50:37.434Z,37.04
2018-12-03T22:53:03.401Z,36.93
2018-12-03T22:55:29.397Z,36.97
2018-12-03T22:57:55.381Z,37.00
2018-12-03T23:00:21.363Z,36.87
2018-12-03T23:02:47.337Z,36.97
2018-12-03T23:05:13.339Z,36.92
2018-12-03T23:07:39.310Z,37.04
2018-12-03T23:10:05.312Z,37.08
2018-12-03T23:12:31.295Z,37.00
2018-12-03T23:14:57.279Z,36.96
2018-12-03T23:17:23.289Z,36.93
2018-12-03T23:19:49.292Z,37.02
2018-12-03T23:22:15.289Z,37.02
2018-12-03T23:24:41.308Z,36.92
2018-12-03T23:27:07.286Z,36.93
2018-12-03T23:29:33.272Z,36.93
2018-12-03T23:31:59.258Z,36.89
2018-12-03T23:34:25.265Z,36.82
2018-12-03T23:36:51.242Z,36.83
2018-12-03T23:39:17.293Z,36.83
2018-12-03T23:41:43.275Z,36.82
2018-12-03T23:44:09.244Z,36.75
2018-12-03T23:46:35.262Z,36.84
2018-12-03T23:49:01.243Z,36.88
2018-12-03T23:51:27.208Z,36.77
2018-12-03T23:53:53.212Z,36.75
2018-12-03T23:56:19.207Z,36.83
2018-12-03T23:58:45.185Z,36.79
